sensor_id;sensor_type;location;lat;lon;timestamp;pressure;altitude;pressure_sealevel;temperature;humidity
57668;BME280;43499;52.366;12.912;2022-10-03T00:00:54;101519.94;;;9.21;100.00
57668;BME280;43499;52.366;12.912;2022-10-03T00:02:18;101524.25;;;9.21;100.00
57668;BME280;43499;52.366;12.912;2022-10-03T00:03:29;101527.34;;;9.25;100.00
57668;BME280;43499;52.366;12.912;2022-10-03T00:04:42;101521.94;;;9.24;100.00
57668;BME280;43499;52.366;12.912;2022-10-03T00:06:08;101523.31;;;9.20;100.00
57668;BME280;43499;52.366;12.912;2022-10-03T00:08:45;101531.06;;;9.19;100.00
57668;BME280;43499;52.366;12.912;2022-10-03T00:10:01;101527.94;;;9.23;100.00
57668;BME280;43499;52.366;12.912;2022-10-03T00:12:49;101532.09;;;9.21;100.00
57668;BME280;43499;52.366;12.912;2022-10-03T00:14:03;101531.06;;;9.19;100.00
57668;BME280;43499;52.366;12.912;2022-10-03T00:18:20;101533.69;;;9.19;100.00
57668;BME280;43499;52.366;12.912;2022-10-03T00:22:32;101536.91;;;9.16;100.00
57668;BME280;43499;52.366;12.912;2022-10-03T00:23:42;101537.34;;;9.21;100.00
57668;BME280;43499;52.366;12.912;2022-10-03T00:25:05;101536.75;;;9.15;100.00
57668;BME280;43499;52.366;12.912;2022-10-03T00:26:48;101533.81;;;9.20;100.00
57668;BME280;43499;52.366;12.912;2022-10-03T00:29:25;101541.38;;;9.26;100.00
57668;BME280;43499;52.366;12.912;2022-10-03T00:30:48;101532.72;;;9.27;100.00
57668;BME280;43499;52.366;12.912;2022-10-03T00:32:46;101542.47;;;9.37;100.00
57668;BME280;43499;52.366;12.912;2022-10-03T00:36:01;101548.44;;;9.45;100.00
57668;BME280;43499;52.366;12.912;2022-10-03T00:37:59;101544.44;;;9.48;100.00
57668;BME280;43499;52.366;12.912;2022-10-03T00:40:46;101546.75;;;9.54;100.00
57668;BME280;43499;52.366;12.912;2022-10-03T00:42:02;101550.88;;;9.61;100.00
57668;BME280;43499;52.366;12.912;2022-10-03T00:43:19;101554.09;;;9.67;100.00
57668;BME280;43499;52.366;12.912;2022-10-03T00:47:03;101554.69;;;9.73;100.00
57668;BME280;43499;52.366;12.912;2022-10-03T00:48:52;101555.94;;;9.77;100.00
57668;BME280;43499;52.366;12.912;2022-10-03T00:53:07;101559.94;;;9.82;100.00
57668;BME280;43499;52.366;12.912;2022-10-03T00:54:25;101552.22;;;9.83;100.00
57668;BME280;43499;52.366;12.912;2022-10-03T00:55:47;101554.69;;;9.82;100.00
57668;BME280;43499;52.366;12.912;2022-10-03T01:00:27;101560.69;;;9.81;100.00
57668;BME280;43499;52.366;12.912;2022-10-03T01:01:45;101565.78;;;9.88;100.00
57668;BME280;43499;52.366;12.912;2022-10-03T01:03:01;101558.38;;;9.93;100.00
57668;BME280;43499;52.366;12.912;2022-10-03T01:04:29;101567.59;;;9.98;100.00
57668;BME280;43499;52.366;12.912;2022-10-03T01:08:47;101558.31;;;10.01;100.00
57668;BME280;43499;52.366;12.912;2022-10-03T01:12:47;101567.34;;;9.86;100.00
57668;BME280;43499;52.366;12.912;2022-10-03T01:14:22;101570.09;;;9.87;100.00
57668;BME280;43499;52.366;12.912;2022-10-03T01:15:48;101565.50;;;9.85;100.00
57668;BME280;43499;52.366;12.912;2022-10-03T01:17:14;101573.38;;;9.85;100.00
57668;BME280;43499;52.366;12.912;2022-10-03T01:18:30;101571.06;;;9.88;100.00
57668;BME280;43499;52.366;12.912;2022-10-03T01:21:37;101579.19;;;9.91;100.00
57668;BME280;43499;52.366;12.912;2022-10-03T01:24:25;101571.00;;;9.97;100.00
57668;BME280;43499;52.366;12.912;2022-10-03T01:25:49;101572.84;;;9.98;100.00
57668;BME280;43499;52.366;12.912;2022-10-03T01:26:56;101581.81;;;10.00;100.00
57668;BME280;43499;52.366;12.912;2022-10-03T01:29:59;101567.31;;;9.95;100.00
57668;BME280;43499;52.366;12.912;2022-10-03T01:31:27;101570.22;;;9.98;100.00
57668;BME280;43499;52.366;12.912;2022-10-03T01:32:56;101583.19;;;10.05;100.00
57668;BME280;43499;52.366;12.912;2022-10-03T01:34:47;101578.84;;;10.06;100.00
57668;BME280;43499;52.366;12.912;2022-10-03T01:36:17;101582.88;;;10.11;100.00
57668;BME280;43499;52.366;12.912;2022-10-03T01:37:32;101588.38;;;10.14;100.00
57668;BME280;43499;52.366;12.912;2022-10-03T01:38:55;101585.94;;;10.15;100.00
57668;BME280;43499;52.366;12.912;2022-10-03T01:40:24;101590.25;;;10.15;100.00
57668;BME280;43499;52.366;12.912;2022-10-03T01:41:51;101594.59;;;10.14;100.00
57668;BME280;43499;52.366;12.912;2022-10-03T01:44:45;101587.34;;;10.12;100.00
57668;BME280;43499;52.366;12.912;2022-10-03T01:47:46;101595.81;;;10.18;100.00
57668;BME280;43499;52.366;12.912;2022-10-03T01:49:07;101597.66;;;10.19;100.00
57668;BME280;43499;52.366;12.912;2022-10-03T01:50:13;101600.28;;;10.19;100.00
57668;BME280;43499;52.366;12.912;2022-10-03T01:51:38;101599.97;;;10.16;100.00
57668;BME280;43499;52.366;12.912;2022-10-03T01:52:53;101602.13;;;10.20;100.00
57668;BME280;43499;52.366;12.912;2022-10-03T01:54:05;101600.28;;;10.19;100.00
57668;BME280;43499;52.366;12.912;2022-10-03T01:55:29;101606.44;;;10.19;100.00
57668;BME280;43499;52.366;12.912;2022-10-03T01:58:04;101606.63;;;10.21;100.00
57668;BME280;43499;52.366;12.912;2022-10-03T01:59:18;101602.78;;;10.17;100.00
57668;BME280;43499;52.366;12.912;2022-10-03T02:00:24;101606.31;;;10.18;100.00
57668;BME280;43499;52.366;12.912;2022-10-03T02:01:45;101612.16;;;10.24;100.00
57668;BME280;43499;52.366;12.912;2022-10-03T02:03:14;101601.06;;;10.18;100.00
57668;BME280;43499;52.366;12.912;2022-10-03T02:06:09;101615.56;;;10.23;100.00
57668;BME280;43499;52.366;12.912;2022-10-03T02:08:54;101614.97;;;10.17;100.00
57668;BME280;43499;52.366;12.912;2022-10-03T02:10:02;101613.41;;;10.19;100.00
57668;BME280;43499;52.366;12.912;2022-10-03T02:11:08;101613.56;;;10.21;100.00
57668;BME280;43499;52.366;12.912;2022-10-03T02:13:40;101611.25;;;10.15;100.00
57668;BME280;43499;52.366;12.912;2022-10-03T02:14:52;101618.88;;;10.12;100.00
57668;BME280;43499;52.366;12.912;2022-10-03T02:16:02;101615.94;;;10.09;100.00
57668;BME280;43499;52.366;12.912;2022-10-03T02:18:38;101617.63;;;10.08;100.00
57668;BME280;43499;52.366;12.912;2022-10-03T02:20:17;101625.03;;;10.12;100.00
57668;BME280;43499;52.366;12.912;2022-10-03T02:21:26;101614.38;;;10.11;100.00
57668;BME280;43499;52.366;12.912;2022-10-03T02:22:37;101620.34;;;10.18;100.00
57668;BME280;43499;52.366;12.912;2022-10-03T02:23:43;101619.13;;;10.15;100.00
57668;BME280;43499;52.366;12.912;2022-10-03T02:24:51;101617.47;;;10.15;100.00
57668;BME280;43499;52.366;12.912;2022-10-03T02:26:25;101624.56;;;10.16;100.00
57668;BME280;43499;52.366;12.912;2022-10-03T02:27:55;101621.59;;;10.22;100.00
57668;BME280;43499;52.366;12.912;2022-10-03T02:29:27;101617.91;;;10.20;100.00
57668;BME280;43499;52.366;12.912;2022-10-03T02:31:00;101612.47;;;10.18;100.00
57668;BME280;43499;52.366;12.912;2022-10-03T02:34:46;101616.03;;;10.19;100.00
57668;BME280;43499;52.366;12.912;2022-10-03T02:36:22;101622.50;;;10.23;100.00
57668;BME280;43499;52.366;12.912;2022-10-03T02:42:37;101620.69;;;10.13;100.00
57668;BME280;43499;52.366;12.912;2022-10-03T02:44:19;101625.81;;;10.11;100.00
57668;BME280;43499;52.366;12.912;2022-10-03T02:45:59;101620.41;;;10.10;100.00
57668;BME280;43499;52.366;12.912;2022-10-03T02:47:42;101624.56;;;10.16;100.00
57668;BME280;43499;52.366;12.912;2022-10-03T02:49:03;101630.91;;;10.10;100.00
57668;BME280;43499;52.366;12.912;2022-10-03T02:51:53;101626.16;;;9.97;100.00
57668;BME280;43499;52.366;12.912;2022-10-03T02:53:21;101634.47;;;10.01;100.00
57668;BME280;43499;52.366;12.912;2022-10-03T02:54:46;101622.16;;;10.00;100.00
57668;BME280;43499;52.366;12.912;2022-10-03T02:59:21;101629.19;;;10.10;100.00
57668;BME280;43499;52.366;12.912;2022-10-03T03:05:58;101633.34;;;10.17;100.00
57668;BME280;43499;52.366;12.912;2022-10-03T03:07:30;101639.81;;;10.21;100.00
57668;BME280;43499;52.366;12.912;2022-10-03T03:09:01;101638.91;;;10.20;100.00
57668;BME280;43499;52.366;12.912;2022-10-03T03:10:30;101640.16;;;10.15;100.00
57668;BME280;43499;52.366;12.912;2022-10-03T03:12:59;101638.59;;;10.17;100.00
57668;BME280;43499;52.366;12.912;2022-10-03T03:14:39;101644.31;;;10.22;100.00
57668;BME280;43499;52.366;12.912;2022-10-03T03:17:31;101648.66;;;10.21;100.00
57668;BME280;43499;52.366;12.912;2022-10-03T03:18:53;101645.84;;;10.19;100.00
57668;BME280;43499;52.366;12.912;2022-10-03T03:22:22;101652.03;;;10.29;100.00
57668;BME280;43499;52.366;12.912;2022-10-03T03:23:39;101642.00;;;10.25;100.00
57668;BME280;43499;52.366;12.912;2022-10-03T03:25:00;101649.75;;;10.23;100.00
57668;BME280;43499;52.366;12.912;2022-10-03T03:27:19;101654.19;;;10.24;100.00
57668;BME280;43499;52.366;12.912;2022-10-03T03:28:12;101652.94;;;10.29;100.00
57668;BME280;43499;52.366;12.912;2022-10-03T03:31:51;101654.03;;;10.31;100.00
57668;BME280;43499;52.366;12.912;2022-10-03T03:33:04;101643.84;;;10.26;100.00
57668;BME280;43499;52.366;12.912;2022-10-03T03:36:01;101656.53;;;10.21;100.00
57668;BME280;43499;52.366;12.912;2022-10-03T03:37:26;101659.44;;;10.24;100.00
57668;BME280;43499;52.366;12.912;2022-10-03T03:39:02;101656.53;;;10.21;100.00
57668;BME280;43499;52.366;12.912;2022-10-03T03:41:46;101644.47;;;10.23;100.00
57668;BME280;43499;52.366;12.912;2022-10-03T03:43:32;101654.34;;;10.26;100.00
57668;BME280;43499;52.366;12.912;2022-10-03T03:44:52;101647.25;;;10.16;100.00
57668;BME280;43499;52.366;12.912;2022-10-03T03:46:18;101657.94;;;10.17;100.00
57668;BME280;43499;52.366;12.912;2022-10-03T03:47:35;101665.34;;;10.22;100.00
57668;BME280;43499;52.366;12.912;2022-10-03T03:49:05;101662.69;;;10.22;100.00
57668;BME280;43499;52.366;12.912;2022-10-03T03:50:36;101661.03;;;10.13;100.00
57668;BME280;43499;52.366;12.912;2022-10-03T03:52:16;101668.91;;;10.13;100.00
57668;BME280;43499;52.366;12.912;2022-10-03T03:54:42;101668.59;;;10.10;100.00
57668;BME280;43499;52.366;12.912;2022-10-03T03:56:17;101675.56;;;10.10;100.00
57668;BME280;43499;52.366;12.912;2022-10-03T03:57:50;101676.50;;;10.10;100.00
57668;BME280;43499;52.366;12.912;2022-10-03T04:00:12;101670.16;;;10.08;100.00
57668;BME280;43499;52.366;12.912;2022-10-03T04:01:31;101668.16;;;10.06;100.00
57668;BME280;43499;52.366;12.912;2022-10-03T04:02:44;101672.19;;;10.02;100.00
57668;BME280;43499;52.366;12.912;2022-10-03T04:09:57;101676.50;;;10.01;100.00
57668;BME280;43499;52.366;12.912;2022-10-03T04:11:25;101674.69;;;10.00;100.00
57668;BME280;43499;52.366;12.912;2022-10-03T04:20:01;101689.31;;;10.07;100.00
57668;BME280;43499;52.366;12.912;2022-10-03T04:26:00;101692.13;;;10.09;100.00
57668;BME280;43499;52.366;12.912;2022-10-03T04:27:26;101686.09;;;10.10;100.00
57668;BME280;43499;52.366;12.912;2022-10-03T04:29:57;101694.41;;;10.14;100.00
57668;BME280;43499;52.366;12.912;2022-10-03T04:31:29;101687.63;;;10.08;100.00
57668;BME280;43499;52.366;12.912;2022-10-03T04:33:04;101693.66;;;10.15;100.00
57668;BME280;43499;52.366;12.912;2022-10-03T04:34:40;101686.84;;;10.17;100.00
57668;BME280;43499;52.366;12.912;2022-10-03T04:36:12;101687.16;;;10.12;100.00
57668;BME280;43499;52.366;12.912;2022-10-03T04:37:17;101693.00;;;10.18;100.00
57668;BME280;43499;52.366;12.912;2022-10-03T04:38:41;101690.38;;;10.18;100.00
57668;BME280;43499;52.366;12.912;2022-10-03T04:39:51;101685.59;;;10.14;100.00
57668;BME280;43499;52.366;12.912;2022-10-03T04:41:06;101689.16;;;10.14;100.00
57668;BME280;43499;52.366;12.912;2022-10-03T04:42:36;101687.75;;;10.18;100.00
57668;BME280;43499;52.366;12.912;2022-10-03T04:45:25;101686.66;;;10.16;100.00
57668;BME280;43499;52.366;12.912;2022-10-03T04:46:38;101696.88;;;10.13;100.00
57668;BME280;43499;52.366;12.912;2022-10-03T04:47:55;101686.53;;;10.14;100.00
57668;BME280;43499;52.366;12.912;2022-10-03T06:18:35;101759.09;;;11.31;95.93
57668;BME280;43499;52.366;12.912;2022-10-03T06:19:57;101759.38;;;11.53;94.61
57668;BME280;43499;52.366;12.912;2022-10-03T06:21:59;101761.59;;;11.68;93.99
57668;BME280;43499;52.366;12.912;2022-10-03T06:25:09;101755.50;;;11.78;93.05
57668;BME280;43499;52.366;12.912;2022-10-03T06:28:10;101760.53;;;11.66;92.19
57668;BME280;43499;52.366;12.912;2022-10-03T06:41:59;101774.22;;;12.48;87.86
57668;BME280;43499;52.366;12.912;2022-10-03T06:46:34;101775.75;;;12.65;86.50
57668;BME280;43499;52.366;12.912;2022-10-03T06:48:10;101768.59;;;13.04;84.82
57668;BME280;43499;52.366;12.912;2022-10-03T06:49:49;101773.06;;;13.05;84.85
57668;BME280;43499;52.366;12.912;2022-10-03T06:53:05;101770.66;;;14.22;79.66
57668;BME280;43499;52.366;12.912;2022-10-03T06:54:45;101773.88;;;15.39;74.67
57668;BME280;43499;52.366;12.912;2022-10-03T06:56:32;101765.41;;;16.49;69.48
57668;BME280;43499;52.366;12.912;2022-10-03T06:57:59;101773.63;;;18.58;61.04
57668;BME280;43499;52.366;12.912;2022-10-03T06:59:27;101774.38;;;18.28;60.46
57668;BME280;43499;52.366;12.912;2022-10-03T07:00:57;101781.47;;;15.69;70.33
57668;BME280;43499;52.366;12.912;2022-10-03T07:08:16;101781.06;;;17.83;62.38
57668;BME280;43499;52.366;12.912;2022-10-03T07:10:43;101780.19;;;18.36;59.68
57668;BME280;43499;52.366;12.912;2022-10-03T07:22:05;101784.88;;;20.26;54.34
57668;BME280;43499;52.366;12.912;2022-10-03T07:51:54;101819.13;;;16.82;64.02
57668;BME280;43499;52.366;12.912;2022-10-03T07:57:16;101826.19;;;15.76;67.50
57668;BME280;43499;52.366;12.912;2022-10-03T08:06:05;101823.78;;;19.77;55.50
57668;BME280;43499;52.366;12.912;2022-10-03T08:20:54;101844.41;;;15.15;68.16
57668;BME280;43499;52.366;12.912;2022-10-03T08:33:59;101862.19;;;14.10;73.14
57668;BME280;43499;52.366;12.912;2022-10-03T09:27:15;101864.00;;;19.52;50.96
57668;BME280;43499;52.366;12.912;2022-10-03T09:34:27;101854.41;;;25.40;38.39
57668;BME280;43499;52.366;12.912;2022-10-03T09:37:37;101854.75;;;24.79;39.71
57668;BME280;43499;52.366;12.912;2022-10-03T09:39:21;101869.44;;;20.72;48.16
57668;BME280;43499;52.366;12.912;2022-10-03T09:41:17;101875.28;;;20.34;50.11
57668;BME280;43499;52.366;12.912;2022-10-03T09:46:29;101860.78;;;22.76;43.12
57668;BME280;43499;52.366;12.912;2022-10-03T10:34:58;101866.13;;;16.95;62.23
57668;BME280;43499;52.366;12.912;2022-10-03T10:36:52;101880.44;;;16.61;63.49
57668;BME280;43499;52.366;12.912;2022-10-03T10:56:26;101882.41;;;15.38;77.10
57668;BME280;43499;52.366;12.912;2022-10-03T11:06:04;101878.25;;;15.86;74.63
57668;BME280;43499;52.366;12.912;2022-10-03T11:07:36;101873.34;;;16.02;75.70
57668;BME280;43499;52.366;12.912;2022-10-03T11:08:54;101876.75;;;16.59;74.82
57668;BME280;43499;52.366;12.912;2022-10-03T11:14:19;101876.50;;;16.80;70.43
57668;BME280;43499;52.366;12.912;2022-10-03T11:19:35;101868.63;;;16.10;71.70
57668;BME280;43499;52.366;12.912;2022-10-03T11:23:26;101855.59;;;17.08;68.42
57668;BME280;43499;52.366;12.912;2022-10-03T11:24:51;101859.13;;;20.63;57.92
57668;BME280;43499;52.366;12.912;2022-10-03T11:27:43;101852.00;;;22.26;49.89
57668;BME280;43499;52.366;12.912;2022-10-03T11:32:44;101849.25;;;21.56;50.51
57668;BME280;43499;52.366;12.912;2022-10-03T11:36:06;101862.56;;;20.15;55.95
57668;BME280;43499;52.366;12.912;2022-10-03T11:37:39;101848.56;;;22.28;48.88
57668;BME280;43499;52.366;12.912;2022-10-03T11:39:00;101849.59;;;22.48;48.94
57668;BME280;43499;52.366;12.912;2022-10-03T11:44:19;101862.31;;;21.02;53.80
57668;BME280;43499;52.366;12.912;2022-10-03T11:45:34;101853.63;;;20.45;53.92
57668;BME280;43499;52.366;12.912;2022-10-03T11:48:30;101857.34;;;19.73;55.80
57668;BME280;43499;52.366;12.912;2022-10-03T11:49:39;101852.69;;;18.99;57.67
57668;BME280;43499;52.366;12.912;2022-10-03T11:50:47;101853.09;;;18.78;58.23
57668;BME280;43499;52.366;12.912;2022-10-03T11:53:33;101857.34;;;17.70;60.47
57668;BME280;43499;52.366;12.912;2022-10-03T11:54:42;101853.75;;;17.45;62.50
57668;BME280;43499;52.366;12.912;2022-10-03T11:56:03;101852.84;;;16.95;63.23
57668;BME280;43499;52.366;12.912;2022-10-03T11:57:24;101857.81;;;16.78;63.78
57668;BME280;43499;52.366;12.912;2022-10-03T11:59:52;101854.47;;;17.55;62.77
57668;BME280;43499;52.366;12.912;2022-10-03T12:02:20;101843.09;;;22.61;48.81
57668;BME280;43499;52.366;12.912;2022-10-03T12:03:30;101846.69;;;22.09;49.34
57668;BME280;43499;52.366;12.912;2022-10-03T12:04:50;101844.72;;;19.71;54.84
57668;BME280;43499;52.366;12.912;2022-10-03T12:05:58;101856.16;;;18.71;58.21
57668;BME280;43499;52.366;12.912;2022-10-03T12:07:36;101851.84;;;18.87;58.12
57668;BME280;43499;52.366;12.912;2022-10-03T12:09:14;101838.84;;;21.96;49.70
57668;BME280;43499;52.366;12.912;2022-10-03T12:10:29;101838.19;;;23.26;46.30
57668;BME280;43499;52.366;12.912;2022-10-03T12:11:40;101844.34;;;24.24;44.08
57668;BME280;43499;52.366;12.912;2022-10-03T12:12:47;101841.06;;;24.52;43.50
57668;BME280;43499;52.366;12.912;2022-10-03T12:14:32;101847.22;;;24.49;44.07
57668;BME280;43499;52.366;12.912;2022-10-03T12:15:41;101839.34;;;24.54;44.00
57668;BME280;43499;52.366;12.912;2022-10-03T12:18:21;101841.50;;;23.80;44.12
57668;BME280;43499;52.366;12.912;2022-10-03T12:21:23;101838.34;;;23.30;45.21
57668;BME280;43499;52.366;12.912;2022-10-03T12:22:47;101836.72;;;22.77;46.22
57668;BME280;43499;52.366;12.912;2022-10-03T12:24:27;101839.44;;;21.24;50.30
57668;BME280;43499;52.366;12.912;2022-10-03T12:25:34;101837.34;;;23.27;46.01
57668;BME280;43499;52.366;12.912;2022-10-03T12:26:42;101836.03;;;21.60;48.40
57668;BME280;43499;52.366;12.912;2022-10-03T12:28:08;101841.53;;;20.66;51.33
57668;BME280;43499;52.366;12.912;2022-10-03T12:29:13;101833.97;;;22.76;46.98
57668;BME280;43499;52.366;12.912;2022-10-03T12:30:18;101832.16;;;22.22;47.48
57668;BME280;43499;52.366;12.912;2022-10-03T12:32:47;101826.25;;;23.59;45.19
57668;BME280;43499;52.366;12.912;2022-10-03T12:34:14;101825.06;;;24.55;43.59
57668;BME280;43499;52.366;12.912;2022-10-03T12:35:32;101819.16;;;25.09;41.30
57668;BME280;43499;52.366;12.912;2022-10-03T12:38:36;101818.81;;;24.56;42.17
57668;BME280;43499;52.366;12.912;2022-10-03T12:40:07;101819.31;;;26.10;39.54
57668;BME280;43499;52.366;12.912;2022-10-03T12:41:22;101821.34;;;25.42;40.22
57668;BME280;43499;52.366;12.912;2022-10-03T12:42:37;101831.28;;;24.12;43.04
57668;BME280;43499;52.366;12.912;2022-10-03T12:43:50;101827.88;;;25.49;40.63
57668;BME280;43499;52.366;12.912;2022-10-03T12:46:14;101837.16;;;20.37;50.25
57668;BME280;43499;52.366;12.912;2022-10-03T12:49:03;101829.13;;;22.69;45.43
57668;BME280;43499;52.366;12.912;2022-10-03T12:51:38;101833.81;;;18.96;52.36
57668;BME280;43499;52.366;12.912;2022-10-03T12:53:03;101837.41;;;18.43;53.94
57668;BME280;43499;52.366;12.912;2022-10-03T12:54:22;101823.22;;;19.11;53.24
57668;BME280;43499;52.366;12.912;2022-10-03T12:55:26;101829.47;;;21.05;48.68
57668;BME280;43499;52.366;12.912;2022-10-03T12:56:47;101826.81;;;21.05;49.19
57668;BME280;43499;52.366;12.912;2022-10-03T12:58:01;101826.00;;;21.72;47.90
57668;BME280;43499;52.366;12.912;2022-10-03T13:00:45;101825.81;;;19.38;52.96
57668;BME280;43499;52.366;12.912;2022-10-03T13:03:33;101831.88;;;18.93;55.00
57668;BME280;43499;52.366;12.912;2022-10-03T13:04:46;101827.25;;;19.33;53.71
57668;BME280;43499;52.366;12.912;2022-10-03T13:06:10;101831.03;;;19.65;53.04
57668;BME280;43499;52.366;12.912;2022-10-03T13:07:48;101823.59;;;19.74;53.04
57668;BME280;43499;52.366;12.912;2022-10-03T13:10:31;101830.44;;;18.85;55.62
57668;BME280;43499;52.366;12.912;2022-10-03T13:13:45;101847.78;;;18.52;56.57
57668;BME280;43499;52.366;12.912;2022-10-03T13:16:27;101842.31;;;18.77;56.90
57668;BME280;43499;52.366;12.912;2022-10-03T13:17:46;101843.84;;;19.42;55.34
57668;BME280;43499;52.366;12.912;2022-10-03T13:19:13;101842.81;;;19.11;55.77
57668;BME280;43499;52.366;12.912;2022-10-03T13:20:33;101844.59;;;18.71;56.92
57668;BME280;43499;52.366;12.912;2022-10-03T13:21:53;101846.13;;;18.40;57.40
57668;BME280;43499;52.366;12.912;2022-10-03T13:23:21;101838.41;;;18.18;57.43
57668;BME280;43499;52.366;12.912;2022-10-03T13:24:39;101848.56;;;17.85;56.70
57668;BME280;43499;52.366;12.912;2022-10-03T13:25:47;101847.44;;;17.56;57.46
57668;BME280;43499;52.366;12.912;2022-10-03T13:27:17;101846.06;;;17.74;56.86
57668;BME280;43499;52.366;12.912;2022-10-03T13:28:30;101849.56;;;17.48;57.71
57668;BME280;43499;52.366;12.912;2022-10-03T13:29:40;101842.97;;;17.94;56.78
57668;BME280;43499;52.366;12.912;2022-10-03T13:30:48;101852.00;;;17.70;57.24
57668;BME280;43499;52.366;12.912;2022-10-03T13:32:11;101841.75;;;17.38;57.16
57668;BME280;43499;52.366;12.912;2022-10-03T13:33:28;101840.47;;;17.33;57.61
57668;BME280;43499;52.366;12.912;2022-10-03T13:36:19;101841.72;;;18.41;54.64
57668;BME280;43499;52.366;12.912;2022-10-03T13:37:30;101852.56;;;18.17;56.06
57668;BME280;43499;52.366;12.912;2022-10-03T13:39:51;101844.34;;;18.00;56.00
57668;BME280;43499;52.366;12.912;2022-10-03T13:41:05;101853.56;;;17.80;56.92
57668;BME280;43499;52.366;12.912;2022-10-03T13:42:23;101844.72;;;17.93;56.56
57668;BME280;43499;52.366;12.912;2022-10-03T13:43:34;101843.91;;;17.69;56.84
57668;BME280;43499;52.366;12.912;2022-10-03T13:44:45;101836.88;;;18.08;56.26
57668;BME280;43499;52.366;12.912;2022-10-03T13:45:49;101842.94;;;18.06;56.21
57668;BME280;43499;52.366;12.912;2022-10-03T13:47:18;101840.91;;;18.28;55.99
57668;BME280;43499;52.366;12.912;2022-10-03T13:48:25;101847.25;;;18.71;55.53
57668;BME280;43499;52.366;12.912;2022-10-03T13:49:46;101841.63;;;18.39;56.62
57668;BME280;43499;52.366;12.912;2022-10-03T13:50:59;101837.72;;;18.21;56.95
57668;BME280;43499;52.366;12.912;2022-10-03T13:52:17;101844.28;;;17.87;58.19
57668;BME280;43499;52.366;12.912;2022-10-03T13:53:53;101841.56;;;17.73;57.25
57668;BME280;43499;52.366;12.912;2022-10-03T13:55:09;101844.28;;;17.87;56.56
57668;BME280;43499;52.366;12.912;2022-10-03T13:57:37;101844.59;;;18.17;56.62
57668;BME280;43499;52.366;12.912;2022-10-03T13:58:49;101842.53;;;18.13;57.05
57668;BME280;43499;52.366;12.912;2022-10-03T14:00:11;101849.75;;;17.77;57.84
57668;BME280;43499;52.366;12.912;2022-10-03T14:02:37;101838.31;;;17.27;58.85
57668;BME280;43499;52.366;12.912;2022-10-03T14:04:10;101844.63;;;17.41;58.20
57668;BME280;43499;52.366;12.912;2022-10-03T14:05:31;101843.09;;;17.07;58.93
57668;BME280;43499;52.366;12.912;2022-10-03T14:06:49;101846.34;;;17.40;59.10
57668;BME280;43499;52.366;12.912;2022-10-03T14:09:34;101850.09;;;17.56;58.65
57668;BME280;43499;52.366;12.912;2022-10-03T14:10:57;101838.69;;;17.20;59.91
57668;BME280;43499;52.366;12.912;2022-10-03T14:12:18;101840.97;;;17.27;59.67
57668;BME280;43499;52.366;12.912;2022-10-03T14:13:28;101843.59;;;17.39;59.37
57668;BME280;43499;52.366;12.912;2022-10-03T14:14:49;101834.69;;;17.38;58.65
57668;BME280;43499;52.366;12.912;2022-10-03T14:16:15;101838.59;;;17.69;57.84
57668;BME280;43499;52.366;12.912;2022-10-03T14:18:04;101828.66;;;17.66;57.20
57668;BME280;43499;52.366;12.912;2022-10-03T14:19:31;101821.13;;;18.78;58.87
57668;BME280;43499;52.366;12.912;2022-10-03T14:22:32;101827.41;;;17.36;57.84
57668;BME280;43499;52.366;12.912;2022-10-03T14:23:44;101828.22;;;17.09;58.61
57668;BME280;43499;52.366;12.912;2022-10-03T14:26:37;101834.00;;;16.80;56.85
57668;BME280;43499;52.366;12.912;2022-10-03T14:27:45;101831.94;;;16.88;57.24
57668;BME280;43499;52.366;12.912;2022-10-03T14:29:15;101824.88;;;16.88;57.51
57668;BME280;43499;52.366;12.912;2022-10-03T14:30:24;101829.19;;;16.74;57.76
57668;BME280;43499;52.366;12.912;2022-10-03T14:37:25;101842.81;;;16.55;58.84
57668;BME280;43499;52.366;12.912;2022-10-03T14:38:44;101836.22;;;16.62;59.58
57668;BME280;43499;52.366;12.912;2022-10-03T14:40:12;101841.91;;;16.55;60.03
57668;BME280;43499;52.366;12.912;2022-10-03T14:41:21;101839.34;;;16.56;60.54
57668;BME280;43499;52.366;12.912;2022-10-03T14:42:36;101839.22;;;16.43;60.45
57668;BME280;43499;52.366;12.912;2022-10-03T14:43:45;101837.63;;;16.45;60.81
57668;BME280;43499;52.366;12.912;2022-10-03T14:44:55;101834.59;;;16.28;61.63
57668;BME280;43499;52.366;12.912;2022-10-03T14:46:00;101840.59;;;16.26;61.66
57668;BME280;43499;52.366;12.912;2022-10-03T14:47:07;101837.50;;;16.19;62.14
57668;BME280;43499;52.366;12.912;2022-10-03T14:48:17;101838.41;;;16.08;62.57
57668;BME280;43499;52.366;12.912;2022-10-03T14:49:26;101843.56;;;15.95;63.19
57668;BME280;43499;52.366;12.912;2022-10-03T14:50:30;101835.28;;;16.02;63.50
57668;BME280;43499;52.366;12.912;2022-10-03T14:51:36;101840.81;;;16.05;63.64
57668;BME280;43499;52.366;12.912;2022-10-03T14:52:39;101843.47;;;15.93;64.04
57668;BME280;43499;52.366;12.912;2022-10-03T14:53:51;101838.09;;;15.81;64.94
57668;BME280;43499;52.366;12.912;2022-10-03T14:54:57;101837.03;;;15.79;64.95
57668;BME280;43499;52.366;12.912;2022-10-03T14:56:05;101831.72;;;15.79;65.67
57668;BME280;43499;52.366;12.912;2022-10-03T14:57:25;101839.13;;;15.83;65.90
57668;BME280;43499;52.366;12.912;2022-10-03T14:58:35;101836.69;;;15.74;66.00
57668;BME280;43499;52.366;12.912;2022-10-03T14:59:37;101835.16;;;15.66;66.74
57668;BME280;43499;52.366;12.912;2022-10-03T15:00:43;101843.84;;;15.53;67.88